createdAt,value
2017-06-06T04:46:29.212Z,75
2017-06-06T04:46:54.681Z,75
2017-06-06T04:47:20.145Z,75
2017-06-06T04:47:45.626Z,75
2017-06-06T04:48:11.122Z,75
2017-06-06T04:48:36.572Z,75
2017-06-06T04:49:02.026Z,80
2017-06-06T04:49:27.489Z,80
2017-06-06T04:49:52.967Z,80
2017-06-06T04:50:18.468Z,80
2017-06-06T04:50:43.944Z,85
2017-06-06T04:51:09.389Z,85
2017-06-06T04:51:34.887Z,90
2017-06-06T04:52:00.398Z,90
2017-06-06T04:52:25.882Z,90
2017-06-06T04:52:51.360Z,85
2017-06-06T04:53:16.830Z,85
2017-06-06T04:53:42.303Z,80
2017-06-06T04:54:07.749Z,85
2017-06-06T04:54:33.228Z,85
2017-06-06T04:54:58.712Z,75
2017-06-06T04:55:24.189Z,75
2017-06-06T04:55:49.657Z,75
2017-06-06T04:56:15.138Z,75
2017-06-06T04:56:40.615Z,75
2017-06-06T04:57:06.082Z,70
2017-06-06T04:57:31.557Z,75
2017-06-06T04:57:57.021Z,75
2017-06-06T04:58:22.488Z,75
2017-06-06T04:58:47.958Z,80
2017-06-06T04:59:13.414Z,80
2017-06-06T04:59:38.894Z,80
2017-06-06T05:00:04.378Z,85
2017-06-06T05:00:29.834Z,85
2017-06-06T05:00:55.285Z,85
2017-06-06T05:01:20.780Z,90
2017-06-06T05:01:46.261Z,90
2017-06-06T05:02:11.731Z,95
2017-06-06T05:02:37.214Z,95
2017-06-06T05:03:02.665Z,100
2017-06-06T05:03:28.150Z,100
2017-06-06T05:03:53.618Z,100
2017-06-06T05:04:19.100Z,105
2017-06-06T05:04:44.594Z,100
2017-06-06T05:05:10.040Z,100
2017-06-06T05:05:35.523Z,100
2017-06-06T05:06:01.032Z,105
2017-06-06T05:06:26.513Z,105
2017-06-06T05:06:51.976Z,105
2017-06-06T05:07:17.483Z,105
2017-06-06T05:07:42.924Z,105
2017-06-06T05:08:08.406Z,110
2017-06-06T05:08:33.899Z,110
2017-06-06T05:08:59.381Z,115
2017-06-06T05:09:24.830Z,130
2017-06-06T05:09:50.341Z,145
2017-06-06T05:10:15.771Z,155
2017-06-06T05:10:41.245Z,170
2017-06-06T05:11:06.766Z,155
2017-06-06T05:11:32.232Z,150
2017-06-06T05:11:57.739Z,150
2017-06-06T05:12:23.210Z,155
2017-06-06T05:12:48.749Z,150
2017-06-06T05:13:14.210Z,160
2017-06-06T05:13:39.693Z,150
2017-06-06T05:14:05.165Z,140
2017-06-06T05:14:30.686Z,125
2017-06-06T05:14:56.158Z,110
2017-06-06T05:15:21.642Z,105
2017-06-06T05:15:47.111Z,105
2017-06-06T05:16:12.582Z,110
2017-06-06T05:16:38.051Z,105
2017-06-06T05:17:03.564Z,95
2017-06-06T05:17:29.035Z,90
2017-06-06T05:17:54.527Z,90
2017-06-06T05:18:20.086Z,90
2017-06-06T05:18:45.510Z,85
2017-06-06T05:19:10.958Z,85
2017-06-06T05:19:36.445Z,85
2017-06-06T05:20:01.901Z,85
2017-06-06T05:20:27.354Z,90
2017-06-06T05:20:52.857Z,95
2017-06-06T05:21:18.378Z,95
2017-06-06T05:21:43.849Z,95
2017-06-06T05:22:09.329Z,100
2017-06-06T05:22:34.824Z,110
2017-06-06T05:23:00.312Z,110
2017-06-06T05:23:25.793Z,115
2017-06-06T05:23:51.291Z,120
2017-06-06T05:24:16.736Z,125
2017-06-06T05:24:42.194Z,125
2017-06-06T05:25:07.684Z,130
2017-06-06T05:25:33.174Z,135
2017-06-06T05:25:58.625Z,140
2017-06-06T05:26:24.068Z,140
2017-06-06T05:26:49.546Z,140
2017-06-06T05:27:15.018Z,135
2017-06-06T05:27:40.489Z,135
2017-06-06T05:28:05.950Z,135
2017-06-06T05:28:31.470Z,135
2017-06-06T05:28:56.942Z,140
2017-06-06T05:29:22.465Z,145
2017-06-06T05:29:47.926Z,150
2017-06-06T05:30:13.566Z,145
2017-06-06T05:30:39.047Z,145
2017-06-06T05:31:04.520Z,150
2017-06-06T05:31:30.015Z,160
2017-06-06T05:31:55.492Z,160
2017-06-06T05:32:20.974Z,160
2017-06-06T05:32:46.445Z,165
2017-06-06T05:33:11.924Z,160
2017-06-06T05:33:37.400Z,160
2017-06-06T05:34:02.906Z,165
2017-06-06T05:34:28.373Z,160
2017-06-06T05:34:53.857Z,155
2017-06-06T05:35:19.323Z,160
2017-06-06T05:35:44.784Z,160
2017-06-06T05:36:10.256Z,155
2017-06-06T05:36:35.739Z,155
2017-06-06T05:37:01.220Z,160
2017-06-06T05:37:28.623Z,165
2017-06-06T05:37:54.109Z,170
2017-06-06T05:38:19.604Z,170
2017-06-06T05:39:43.073Z,160
2017-06-06T05:40:08.555Z,155
2017-06-06T05:40:34.045Z,145
2017-06-06T05:40:59.504Z,140
2017-06-06T05:41:24.975Z,140
2017-06-06T05:41:50.499Z,135
2017-06-06T05:42:15.964Z,135
2017-06-06T05:42:41.442Z,140
2017-06-06T05:43:06.943Z,140
2017-06-06T05:43:32.401Z,145
2017-06-06T05:43:57.897Z,150
2017-06-06T05:44:23.397Z,150
2017-06-06T05:44:48.914Z,155
2017-06-06T05:45:14.401Z,155
2017-06-06T05:45:39.869Z,155
2017-06-06T05:46:05.320Z,155
2017-06-06T05:46:30.827Z,160
2017-06-06T05:46:56.303Z,165
2017-06-06T05:47:21.780Z,165
2017-06-06T05:47:47.307Z,165
2017-06-06T05:48:12.780Z,165
2017-06-06T05:48:38.219Z,160
2017-06-06T05:49:03.714Z,165
2017-06-06T05:49:29.198Z,165
2017-06-06T05:49:54.678Z,160
2017-06-06T05:50:20.157Z,160
2017-06-06T05:50:45.651Z,160
2017-06-06T05:51:11.162Z,170
2017-06-06T05:51:36.645Z,165
2017-06-06T05:52:02.127Z,175
2017-06-06T05:52:27.593Z,165
2017-06-06T05:52:53.083Z,170
2017-06-06T05:53:18.578Z,185
2017-06-06T05:53:44.052Z,190
2017-06-06T05:54:09.509Z,190
2017-06-06T05:54:35.014Z,180
2017-06-06T05:55:00.487Z,170
2017-06-06T05:55:25.963Z,160
2017-06-06T05:55:51.438Z,160
2017-06-06T05:56:16.940Z,160
2017-06-06T05:56:42.403Z,165
2017-06-06T05:57:07.905Z,165
2017-06-06T05:57:33.384Z,170
2017-06-06T05:57:58.893Z,175
2017-06-06T05:58:24.371Z,185
2017-06-06T05:58:49.848Z,170
2017-06-06T05:59:15.355Z,170
2017-06-06T05:59:40.832Z,155
2017-06-06T06:00:06.297Z,160
2017-06-06T06:00:31.794Z,170
2017-06-06T06:00:57.315Z,165
2017-06-06T06:01:22.783Z,165
2017-06-06T06:01:48.270Z,165
2017-06-06T06:02:13.765Z,165
2017-06-06T06:02:39.264Z,175
2017-06-06T06:03:04.745Z,185
2017-06-06T06:03:30.215Z,190
2017-06-06T06:03:55.710Z,205
2017-06-06T06:04:21.188Z,215
2017-06-06T06:04:46.688Z,225
2017-06-06T06:05:12.198Z,230
2017-06-06T06:05:37.656Z,235
2017-06-06T06:06:03.135Z,230
2017-06-06T06:06:28.592Z,215
2017-06-06T06:06:54.067Z,210
2017-06-06T06:07:19.554Z,200
2017-06-06T06:07:45.016Z,195
2017-06-06T06:08:10.506Z,190
2017-06-06T06:08:35.983Z,185
2017-06-06T06:09:01.464Z,185
2017-06-06T06:09:26.946Z,180
2017-06-06T06:09:52.424Z,180
2017-06-06T06:10:17.937Z,180
2017-06-06T06:10:43.400Z,185
2017-06-06T06:11:08.906Z,190
2017-06-06T06:11:34.393Z,205
2017-06-06T06:11:59.854Z,205
2017-06-06T06:12:25.315Z,205
2017-06-06T06:12:50.816Z,210
2017-06-06T06:13:16.281Z,220
2017-06-06T06:13:41.741Z,230
2017-06-06T06:14:07.216Z,220
2017-06-06T06:14:32.702Z,210
2017-06-06T06:14:58.160Z,200
2017-06-06T06:15:23.657Z,195
2017-06-06T06:15:49.120Z,185
2017-06-06T06:16:14.607Z,190
2017-06-06T06:16:40.079Z,190
2017-06-06T06:17:05.545Z,190
2017-06-06T06:17:31.026Z,195
2017-06-06T06:17:56.503Z,205
2017-06-06T06:18:21.978Z,215
2017-06-06T06:18:47.485Z,220
2017-06-06T06:19:12.960Z,220
2017-06-06T06:19:38.404Z,220
2017-06-06T06:20:03.867Z,215
2017-06-06T06:20:29.345Z,215
2017-06-06T06:20:54.834Z,215
2017-06-06T06:21:20.324Z,210
2017-06-06T06:21:45.816Z,210
2017-06-06T06:22:11.306Z,215
2017-06-06T06:22:36.779Z,220
2017-06-06T06:23:02.242Z,205
2017-06-06T06:23:27.726Z,200
2017-06-06T06:23:53.217Z,235
2017-06-06T06:24:18.734Z,235
2017-06-06T06:24:44.194Z,245
2017-06-06T06:25:09.653Z,250
2017-06-06T06:25:35.145Z,230
2017-06-06T06:26:00.603Z,235
2017-06-06T06:26:26.068Z,235
2017-06-06T06:26:51.555Z,215
2017-06-06T06:27:17.044Z,215
2017-06-06T06:27:42.527Z,210
2017-06-06T06:28:07.992Z,205
2017-06-06T06:28:33.460Z,215
2017-06-06T06:28:58.923Z,195
2017-06-06T06:29:24.404Z,190
2017-06-06T06:29:49.908Z,190
2017-06-06T06:30:15.387Z,185
2017-06-06T06:30:40.863Z,180
2017-06-06T06:31:06.346Z,185
2017-06-06T06:31:31.817Z,215
2017-06-06T06:31:57.280Z,230
2017-06-06T06:32:22.756Z,255
2017-06-06T06:32:48.252Z,260
2017-06-06T06:33:13.747Z,265
2017-06-06T06:33:39.213Z,285
2017-06-06T06:34:04.743Z,290
2017-06-06T06:34:30.243Z,250
2017-06-06T06:34:55.748Z,305
2017-06-06T06:35:21.198Z,310
2017-06-06T06:35:46.677Z,295
2017-06-06T06:36:12.178Z,305
2017-06-06T06:36:37.659Z,310
2017-06-06T06:37:03.142Z,325
2017-06-06T06:37:28.621Z,325
2017-06-06T06:37:54.112Z,335
2017-06-06T06:38:19.599Z,330
2017-06-06T06:38:45.070Z,335
2017-06-06T06:39:10.555Z,345
2017-06-06T06:39:36.020Z,345
2017-06-06T06:40:01.530Z,335
2017-06-06T06:40:26.973Z,330
2017-06-06T06:40:52.449Z,320
2017-06-06T06:41:17.903Z,310
2017-06-06T06:41:43.394Z,320
2017-06-06T06:42:08.858Z,305
2017-06-06T06:42:34.346Z,310
2017-06-06T06:42:59.824Z,325
2017-06-06T06:43:25.296Z,330
2017-06-06T06:43:50.750Z,325
2017-06-06T06:44:16.231Z,315
2017-06-06T06:44:41.716Z,320
2017-06-06T06:45:07.172Z,305
2017-06-06T06:45:32.659Z,310
2017-06-06T06:45:58.152Z,300
2017-06-06T06:46:23.622Z,280
2017-06-06T06:46:49.142Z,270
2017-06-06T06:47:14.646Z,255
2017-06-06T06:47:40.138Z,220
2017-06-06T06:48:05.606Z,245
2017-06-06T06:48:31.067Z,235
2017-06-06T06:48:56.560Z,235
2017-06-06T06:49:22.023Z,235
2017-06-06T06:49:47.506Z,210
2017-06-06T06:50:12.981Z,200
2017-06-06T06:50:38.451Z,205
2017-06-06T06:51:03.937Z,215
2017-06-06T06:51:29.427Z,215
2017-06-06T06:51:54.912Z,225
2017-06-06T06:52:20.375Z,225
2017-06-06T06:52:45.856Z,230
2017-06-06T06:53:11.333Z,230
2017-06-06T06:53:36.812Z,190
2017-06-06T06:54:02.290Z,170
2017-06-06T06:54:27.773Z,170
2017-06-06T06:54:53.263Z,165
2017-06-06T06:55:18.727Z,160
2017-06-06T06:55:44.216Z,160
2017-06-06T06:56:09.679Z,160
2017-06-06T06:56:35.132Z,160
2017-06-06T06:57:00.609Z,160
2017-06-06T06:57:26.103Z,155
2017-06-06T06:57:51.578Z,155
2017-06-06T06:58:17.062Z,150
2017-06-06T06:58:42.528Z,150
2017-06-06T06:59:08.022Z,150
2017-06-06T06:59:33.488Z,150
2017-06-06T06:59:58.961Z,150
2017-06-06T07:00:24.424Z,155
2017-06-06T07:00:49.899Z,155
2017-06-06T07:01:15.369Z,155
2017-06-06T07:01:40.847Z,160
2017-06-06T07:02:06.309Z,160
2017-06-06T07:02:31.796Z,165
2017-06-06T07:02:57.293Z,170
2017-06-06T07:03:22.771Z,170
2017-06-06T07:03:48.231Z,175
2017-06-06T07:04:13.716Z,175
2017-06-06T07:04:39.197Z,180
2017-06-06T07:05:04.665Z,185
2017-06-06T07:05:30.147Z,185
2017-06-06T07:05:55.623Z,190
2017-06-06T07:06:21.097Z,195
2017-06-06T07:06:46.591Z,195
2017-06-06T07:07:12.084Z,195
2017-06-06T07:07:37.586Z,200
2017-06-06T07:08:03.057Z,200
2017-06-06T07:08:28.549Z,200
2017-06-06T07:08:54.005Z,200
2017-06-06T07:09:19.496Z,200
2017-06-06T07:09:44.965Z,205
2017-06-06T07:10:10.450Z,205
2017-06-06T07:10:35.906Z,205
2017-06-06T07:11:01.438Z,205
2017-06-06T07:11:26.906Z,205
2017-06-06T07:11:52.382Z,205
2017-06-06T07:12:17.868Z,210
2017-06-06T07:12:43.361Z,220
2017-06-06T07:13:08.852Z,225
2017-06-06T07:13:34.322Z,230
2017-06-06T07:13:59.779Z,235
2017-06-06T07:14:25.227Z,230
2017-06-06T07:14:50.713Z,230
2017-06-06T07:15:16.173Z,230
2017-06-06T07:15:41.633Z,230
2017-06-06T07:16:07.108Z,230
2017-06-06T07:16:32.569Z,225
2017-06-06T07:16:58.061Z,220
2017-06-06T07:17:23.524Z,220
2017-06-06T07:17:49.011Z,225
2017-06-06T07:18:14.501Z,240
2017-06-06T07:18:39.987Z,240
2017-06-06T07:19:05.441Z,240
2017-06-06T07:19:30.909Z,240
2017-06-06T07:19:56.389Z,240
2017-06-06T07:20:21.880Z,240
2017-06-06T07:20:47.353Z,235
2017-06-06T07:21:12.821Z,230
2017-06-06T07:21:38.314Z,220
2017-06-06T07:22:03.803Z,210
2017-06-06T07:22:29.287Z,205
2017-06-06T07:22:54.796Z,205
2017-06-06T07:23:20.282Z,200
2017-06-06T07:23:45.784Z,200
2017-06-06T07:24:11.248Z,195
2017-06-06T07:24:36.708Z,190
2017-06-06T07:25:02.177Z,185
2017-06-06T07:25:27.649Z,180
2017-06-06T07:25:53.107Z,175
2017-06-06T07:26:18.575Z,170
2017-06-06T07:26:44.062Z,165
2017-06-06T07:27:09.559Z,160
2017-06-06T07:27:35.031Z,150
2017-06-06T07:28:00.510Z,145
2017-06-06T07:28:25.980Z,140
2017-06-06T07:28:51.470Z,135
2017-06-06T07:29:16.949Z,130
2017-06-06T07:29:42.442Z,130
2017-06-06T07:30:07.914Z,130
2017-06-06T07:30:33.360Z,130
2017-06-06T07:30:58.837Z,135
2017-06-06T07:31:24.307Z,140
2017-06-06T07:31:49.780Z,140
2017-06-06T07:32:15.262Z,145
2017-06-06T07:32:40.746Z,145
2017-06-06T07:33:06.206Z,150
2017-06-06T07:33:31.678Z,150
2017-06-06T07:33:57.160Z,150
2017-06-06T07:34:22.650Z,150
2017-06-06T07:34:48.148Z,150
2017-06-06T07:35:13.627Z,150
2017-06-06T07:35:39.118Z,150
2017-06-06T07:36:04.623Z,150
2017-06-06T07:36:30.089Z,145
2017-06-06T07:36:55.583Z,145
2017-06-06T07:37:21.056Z,150
2017-06-06T07:37:46.536Z,155
2017-06-06T07:38:12.014Z,160
2017-06-06T07:38:37.497Z,170
2017-06-06T07:39:02.970Z,180
2017-06-06T07:39:28.435Z,195
2017-06-06T07:39:53.902Z,205
2017-06-06T07:40:19.366Z,210
2017-06-06T07:40:44.821Z,215
2017-06-06T07:41:10.292Z,215
2017-06-06T07:41:35.778Z,210
2017-06-06T07:42:01.250Z,210
2017-06-06T07:42:26.700Z,205
2017-06-06T07:42:52.181Z,200
2017-06-06T07:43:17.660Z,195
2017-06-06T07:43:43.130Z,195
2017-06-06T07:44:08.608Z,190
2017-06-06T07:44:34.073Z,195
2017-06-06T07:44:59.563Z,195
2017-06-06T07:45:25.031Z,200
2017-06-06T07:45:50.494Z,210
2017-06-06T07:46:15.978Z,215
2017-06-06T07:46:41.469Z,220
2017-06-06T07:47:06.940Z,220
2017-06-06T07:47:32.400Z,225
2017-06-06T07:47:57.881Z,225
2017-06-06T07:48:23.384Z,225
2017-06-06T07:48:48.866Z,225
2017-06-06T07:49:14.335Z,230
2017-06-06T07:49:39.821Z,235
2017-06-06T07:50:05.321Z,240
2017-06-06T07:50:30.800Z,240
2017-06-06T07:50:56.281Z,245
2017-06-06T07:51:21.753Z,240
2017-06-06T07:51:47.229Z,240
2017-06-06T07:52:12.720Z,235
2017-06-06T07:52:38.178Z,235
2017-06-06T07:53:03.652Z,230
2017-06-06T07:53:29.130Z,230
2017-06-06T07:53:54.598Z,225
2017-06-06T07:54:20.113Z,225
2017-06-06T07:54:45.582Z,220
2017-06-06T07:55:11.081Z,220
2017-06-06T07:55:36.521Z,210
2017-06-06T07:56:01.998Z,205
2017-06-06T07:56:27.494Z,200
2017-06-06T07:56:52.983Z,195
2017-06-06T07:57:18.468Z,190
2017-06-06T07:57:43.963Z,190
2017-06-06T07:58:09.435Z,185
2017-06-06T07:58:34.929Z,185
2017-06-06T07:59:00.411Z,185
2017-06-06T07:59:25.906Z,185
2017-06-06T07:59:51.386Z,185
2017-06-06T08:00:16.854Z,190
2017-06-06T08:00:42.323Z,190
2017-06-06T08:01:07.802Z,190
2017-06-06T08:01:33.277Z,190
2017-06-06T08:01:58.765Z,195
2017-06-06T08:02:24.246Z,195
2017-06-06T08:02:49.728Z,190
2017-06-06T08:03:15.204Z,185
2017-06-06T08:03:40.690Z,180
2017-06-06T08:04:06.180Z,170
2017-06-06T08:04:31.648Z,160
2017-06-06T08:04:57.155Z,150
2017-06-06T08:05:22.638Z,150
2017-06-06T08:05:48.125Z,155
2017-06-06T08:06:13.619Z,170
2017-06-06T08:06:39.114Z,190
2017-06-06T08:07:04.576Z,205
2017-06-06T08:07:30.055Z,220
2017-06-06T08:07:55.548Z,230
2017-06-06T08:08:21.040Z,245
2017-06-06T08:08:46.519Z,245
2017-06-06T08:09:11.994Z,250
2017-06-06T08:09:37.462Z,255
2017-06-06T08:10:02.931Z,255
2017-06-06T08:10:28.417Z,255
2017-06-06T08:10:53.911Z,255
2017-06-06T08:11:19.390Z,250
2017-06-06T08:11:44.843Z,250
2017-06-06T08:12:10.318Z,245
2017-06-06T08:12:35.780Z,245
2017-06-06T08:13:01.277Z,250
2017-06-06T08:13:26.743Z,250
2017-06-06T08:13:52.238Z,250
2017-06-06T08:14:17.717Z,250
2017-06-06T08:14:43.185Z,250
2017-06-06T08:15:08.691Z,245
2017-06-06T08:15:34.188Z,250
2017-06-06T08:15:59.657Z,245
2017-06-06T08:16:25.152Z,240
2017-06-06T08:16:50.628Z,245
2017-06-06T08:17:16.107Z,245
2017-06-06T08:17:41.587Z,250
2017-06-06T08:18:07.067Z,250
2017-06-06T08:18:32.561Z,250
2017-06-06T08:18:58.040Z,250
2017-06-06T08:19:23.528Z,255
2017-06-06T08:19:49.020Z,255
2017-06-06T08:20:14.496Z,250
2017-06-06T08:20:39.969Z,245
2017-06-06T08:21:05.447Z,245
2017-06-06T08:21:30.915Z,250
2017-06-06T08:21:56.376Z,260
2017-06-06T08:22:21.855Z,260
2017-06-06T08:22:47.311Z,255
2017-06-06T08:23:12.796Z,240
2017-06-06T08:23:38.263Z,235
2017-06-06T08:24:03.744Z,235
2017-06-06T08:24:29.215Z,240
2017-06-06T08:24:54.720Z,245
2017-06-06T08:25:20.187Z,255
2017-06-06T08:25:45.667Z,260
2017-06-06T08:26:11.121Z,275
2017-06-06T08:26:36.628Z,275
2017-06-06T08:27:02.099Z,270
2017-06-06T08:27:27.577Z,260
2017-06-06T08:27:53.049Z,270
2017-06-06T08:28:18.530Z,290
2017-06-06T08:28:44.028Z,300
2017-06-06T08:29:09.498Z,305
2017-06-06T08:29:35.016Z,310
2017-06-06T08:30:00.496Z,310
2017-06-06T08:30:25.968Z,305
2017-06-06T08:30:51.437Z,295
2017-06-06T08:31:16.914Z,280
2017-06-06T08:31:42.403Z,265
2017-06-06T08:32:07.867Z,255
2017-06-06T08:32:33.452Z,260
2017-06-06T08:32:58.828Z,260
2017-06-06T08:33:24.319Z,260
2017-06-06T08:33:49.821Z,255
2017-06-06T08:34:15.303Z,255
2017-06-06T08:34:40.785Z,235
2017-06-06T08:35:06.235Z,220
2017-06-06T08:35:31.711Z,215
2017-06-06T08:35:57.211Z,215
2017-06-06T08:36:22.693Z,195
2017-06-06T08:36:48.172Z,170
2017-06-06T08:37:13.648Z,145
2017-06-06T08:37:39.137Z,125
2017-06-06T08:38:04.609Z,115
2017-06-06T08:38:30.093Z,115
2017-06-06T08:38:55.601Z,125
2017-06-06T08:39:21.084Z,140
2017-06-06T08:39:46.565Z,145
2017-06-06T08:40:12.041Z,135
2017-06-06T08:40:37.526Z,125
2017-06-06T08:41:03.014Z,145
2017-06-06T08:41:28.476Z,160
2017-06-06T08:41:53.970Z,165
2017-06-06T08:42:19.475Z,160
2017-06-06T08:42:44.943Z,165
2017-06-06T08:43:10.427Z,170
2017-06-06T08:43:35.914Z,155
2017-06-06T08:44:01.408Z,135
2017-06-06T08:44:26.880Z,110
2017-06-06T08:44:52.365Z,80
2017-06-06T08:45:17.842Z,70
2017-06-06T08:45:43.333Z,80
2017-06-06T08:46:08.811Z,115
2017-06-06T08:46:34.329Z,140
2017-06-06T08:46:59.795Z,155
2017-06-06T08:47:25.281Z,145
2017-06-06T08:47:50.756Z,130
2017-06-06T08:48:16.223Z,120
2017-06-06T08:48:41.682Z,120
2017-06-06T08:49:07.189Z,120
2017-06-06T08:49:32.674Z,125
2017-06-06T08:49:58.179Z,125
2017-06-06T08:50:23.683Z,120
2017-06-06T08:50:49.163Z,105
2017-06-06T08:51:14.640Z,90
2017-06-06T08:51:40.129Z,85
2017-06-06T08:52:05.601Z,95
2017-06-06T08:52:31.088Z,120
2017-06-06T08:52:56.574Z,140
2017-06-06T08:53:22.081Z,140
2017-06-06T08:53:47.566Z,130
2017-06-06T08:54:13.044Z,125
2017-06-06T08:54:38.517Z,125
2017-06-06T08:55:03.991Z,130
2017-06-06T08:55:29.468Z,140
2017-06-06T08:55:54.940Z,145
2017-06-06T08:56:20.404Z,140
2017-06-06T08:56:45.904Z,135
2017-06-06T08:57:11.418Z,135
2017-06-06T08:57:36.895Z,130
2017-06-06T08:58:02.397Z,135
2017-06-06T08:58:27.885Z,135
2017-06-06T08:58:53.355Z,135
2017-06-06T08:59:18.841Z,130
2017-06-06T08:59:44.327Z,135
2017-06-06T09:00:09.817Z,145
2017-06-06T09:00:35.299Z,150
2017-06-06T09:01:00.769Z,140
2017-06-06T09:01:26.231Z,130
2017-06-06T09:01:51.738Z,130
2017-06-06T09:02:17.190Z,140
2017-06-06T09:02:42.695Z,150
2017-06-06T09:03:08.191Z,135
2017-06-06T09:03:33.657Z,120
2017-06-06T09:03:59.169Z,125
2017-06-06T09:04:24.650Z,125
2017-06-06T09:04:50.126Z,125
2017-06-06T09:05:15.589Z,125
2017-06-06T09:05:41.095Z,145
2017-06-06T09:06:06.587Z,160
2017-06-06T09:06:32.060Z,165
2017-06-06T09:06:57.533Z,155
2017-06-06T09:07:22.996Z,145
2017-06-06T09:07:48.467Z,150
2017-06-06T09:08:13.934Z,170
2017-06-06T09:08:39.430Z,200
2017-06-06T09:09:04.890Z,210
2017-06-06T09:09:30.363Z,215
2017-06-06T09:09:55.840Z,200
2017-06-06T09:10:21.319Z,185
2017-06-06T09:10:46.789Z,190
2017-06-06T09:11:12.271Z,190
2017-06-06T09:11:37.751Z,195
2017-06-06T09:12:03.267Z,210
2017-06-06T09:12:28.757Z,210
2017-06-06T09:12:54.213Z,190
2017-06-06T09:13:19.694Z,160
2017-06-06T09:13:45.195Z,145
2017-06-06T09:14:10.670Z,135
2017-06-06T09:14:36.183Z,135
2017-06-06T09:15:01.656Z,130
2017-06-06T09:15:27.131Z,115
2017-06-06T09:15:52.602Z,100
2017-06-06T09:16:18.080Z,95
2017-06-06T09:16:43.578Z,100
2017-06-06T09:17:09.064Z,105
2017-06-06T09:17:34.534Z,100
2017-06-06T09:18:00.042Z,95
2017-06-06T09:18:25.495Z,95
2017-06-06T09:18:50.978Z,100
2017-06-06T09:19:16.465Z,85
2017-06-06T09:19:41.952Z,85
2017-06-06T09:20:07.419Z,80
2017-06-06T09:20:32.886Z,75
2017-06-06T09:20:58.352Z,70
2017-06-06T09:21:23.840Z,70
2017-06-06T09:21:49.308Z,70
2017-06-06T09:22:14.803Z,75
2017-06-06T09:22:40.290Z,75
2017-06-06T09:23:05.765Z,80
2017-06-06T09:23:31.253Z,85
2017-06-06T09:23:56.745Z,85
2017-06-06T09:24:22.221Z,85
2017-06-06T09:24:47.705Z,85
2017-06-06T09:25:13.226Z,90
2017-06-06T09:25:38.703Z,95
2017-06-06T09:26:04.193Z,100
2017-06-06T09:26:29.671Z,110
2017-06-06T09:26:55.142Z,115
2017-06-06T09:27:20.634Z,125
2017-06-06T09:27:46.122Z,135
2017-06-06T09:28:11.602Z,140
2017-06-06T09:28:37.063Z,140
2017-06-06T09:29:02.556Z,145
2017-06-06T09:29:28.057Z,150
2017-06-06T09:29:53.518Z,150
2017-06-06T09:30:19.026Z,145
2017-06-06T09:30:44.529Z,145
2017-06-06T09:31:10.001Z,140
2017-06-06T09:31:35.468Z,135
2017-06-06T09:32:00.938Z,135
2017-06-06T09:32:26.422Z,135
2017-06-06T09:32:51.928Z,130
2017-06-06T09:33:17.404Z,120
2017-06-06T09:33:42.885Z,115
2017-06-06T09:34:08.363Z,110
2017-06-06T09:34:33.845Z,100
2017-06-06T09:34:59.342Z,95
2017-06-06T09:35:24.828Z,95
2017-06-06T09:35:50.314Z,100
2017-06-06T09:36:15.826Z,105
2017-06-06T09:36:41.280Z,120
2017-06-06T09:37:06.783Z,135
2017-06-06T09:37:32.300Z,155
2017-06-06T09:37:57.754Z,170
2017-06-06T09:38:23.218Z,195
2017-06-06T09:38:48.699Z,215
2017-06-06T09:39:14.196Z,240
2017-06-06T09:39:39.706Z,255
2017-06-06T09:40:05.187Z,275
2017-06-06T09:40:30.690Z,295
2017-06-06T09:40:56.185Z,305
2017-06-06T09:41:21.672Z,310
2017-06-06T09:41:47.164Z,315
2017-06-06T09:42:12.631Z,320
2017-06-06T09:42:38.109Z,325
2017-06-06T09:43:03.571Z,325
2017-06-06T09:43:29.053Z,310
2017-06-06T09:43:54.535Z,285
2017-06-06T09:44:20.012Z,255
2017-06-06T09:44:45.507Z,235
2017-06-06T09:45:10.989Z,215
2017-06-06T09:45:36.494Z,200
2017-06-06T09:46:01.966Z,185
2017-06-06T09:46:27.456Z,175
2017-06-06T09:46:52.945Z,170
2017-06-06T09:47:18.424Z,170
2017-06-06T09:47:43.917Z,170
2017-06-06T09:48:09.421Z,165
2017-06-06T09:48:34.901Z,165
2017-06-06T09:49:00.373Z,170
2017-06-06T09:49:25.845Z,180
2017-06-06T09:49:51.330Z,210
2017-06-06T09:50:16.809Z,235
2017-06-06T09:50:42.299Z,245
2017-06-06T09:51:07.795Z,235
2017-06-06T09:51:33.290Z,205
2017-06-06T09:51:58.764Z,185
2017-06-06T09:52:24.247Z,185
2017-06-06T09:52:49.753Z,200
2017-06-06T09:53:15.234Z,220
2017-06-06T09:53:40.718Z,225
2017-06-06T09:54:06.233Z,215
2017-06-06T09:54:31.706Z,220
2017-06-06T09:54:57.205Z,230
2017-06-06T09:55:22.698Z,250
2017-06-06T09:55:48.159Z,250
2017-06-06T09:56:13.668Z,245
2017-06-06T09:56:39.161Z,230
2017-06-06T09:57:04.634Z,215
2017-06-06T09:57:30.136Z,205
2017-06-06T09:57:55.629Z,210
2017-06-06T09:58:21.101Z,225
2017-06-06T09:58:46.573Z,230
2017-06-06T09:59:12.034Z,235
2017-06-06T09:59:37.514Z,230
2017-06-06T10:00:02.993Z,230
2017-06-06T10:00:28.484Z,230
2017-06-06T10:00:53.984Z,230
2017-06-06T10:01:19.460Z,210
2017-06-06T10:01:44.937Z,180
2017-06-06T10:02:10.427Z,185
2017-06-06T10:02:35.903Z,220
2017-06-06T10:03:01.390Z,250
2017-06-06T10:03:26.849Z,250
2017-06-06T10:03:52.356Z,230
2017-06-06T10:04:17.852Z,240
2017-06-06T10:04:43.323Z,235
2017-06-06T10:05:08.829Z,205
2017-06-06T10:05:34.317Z,210
2017-06-06T10:05:59.789Z,230
2017-06-06T10:06:25.268Z,225
2017-06-06T10:06:50.765Z,215
2017-06-06T10:07:16.246Z,195
2017-06-06T10:07:41.736Z,190
2017-06-06T10:08:07.202Z,210
2017-06-06T10:08:32.683Z,215
2017-06-06T10:08:58.144Z,215
2017-06-06T10:09:23.637Z,225
2017-06-06T10:09:49.119Z,215
2017-06-06T10:10:14.598Z,190
2017-06-06T10:10:40.078Z,160
2017-06-06T10:11:05.550Z,150
2017-06-06T10:11:31.010Z,180
2017-06-06T10:11:56.486Z,205
2017-06-06T10:12:21.972Z,225
2017-06-06T10:12:47.447Z,225
2017-06-06T10:13:12.929Z,210
2017-06-06T10:13:38.397Z,205
2017-06-06T10:14:03.890Z,200
2017-06-06T10:14:29.365Z,195
2017-06-06T10:14:54.862Z,185
2017-06-06T10:15:20.352Z,175
2017-06-06T10:16:43.836Z,105
2017-06-06T10:17:09.324Z,95
2017-06-06T10:17:34.796Z,85
2017-06-06T10:18:00.278Z,80
2017-06-06T10:18:25.760Z,90
2017-06-06T10:18:51.257Z,110
2017-06-06T10:19:16.724Z,125
2017-06-06T10:19:42.215Z,130
2017-06-06T10:20:07.701Z,125
2017-06-06T10:20:33.175Z,120
2017-06-06T10:20:58.667Z,140
2017-06-06T10:21:24.140Z,150
2017-06-06T10:21:49.602Z,165
2017-06-06T10:22:15.086Z,190
2017-06-06T10:22:40.574Z,205
2017-06-06T10:23:06.056Z,205
2017-06-06T10:23:31.527Z,200
2017-06-06T10:23:57.015Z,175
2017-06-06T10:24:22.494Z,165
2017-06-06T10:24:47.956Z,170
2017-06-06T10:25:13.424Z,190
2017-06-06T10:25:38.912Z,220
2017-06-06T10:26:04.390Z,255
2017-06-06T10:26:29.872Z,240
2017-06-06T10:26:55.327Z,235
2017-06-06T10:27:20.793Z,265
2017-06-06T10:27:46.288Z,275
2017-06-06T10:28:11.762Z,295
2017-06-06T10:28:37.262Z,290
2017-06-06T10:29:02.766Z,290
2017-06-06T10:29:28.249Z,280
2017-06-06T10:29:53.748Z,275
2017-06-06T10:30:19.222Z,265
2017-06-06T10:30:44.707Z,260
2017-06-06T10:31:10.179Z,245
2017-06-06T10:31:35.651Z,250
2017-06-06T10:32:01.145Z,230
2017-06-06T10:32:26.659Z,220
2017-06-06T10:32:52.134Z,210
2017-06-06T10:33:17.618Z,215
2017-06-06T10:33:43.143Z,230
2017-06-06T10:34:08.597Z,215
2017-06-06T10:34:34.067Z,175
2017-06-06T10:34:59.540Z,160
2017-06-06T10:35:25.046Z,165
2017-06-06T10:35:50.548Z,150
2017-06-06T10:36:16.017Z,150
2017-06-06T10:36:41.486Z,190
2017-06-06T10:37:06.970Z,220
2017-06-06T10:37:32.449Z,235
2017-06-06T10:37:57.923Z,230
2017-06-06T10:38:23.385Z,195
2017-06-06T10:38:48.877Z,170
2017-06-06T10:39:14.373Z,165
2017-06-06T10:39:39.850Z,220
2017-06-06T10:40:05.325Z,260